createdAt,value
2019-01-09T00:00:57.080Z,1002.93
2019-01-09T00:01:57.038Z,1002.85
2019-01-09T00:02:57.056Z,1002.99
2019-01-09T00:03:57.022Z,1003.02
2019-01-09T00:04:57.003Z,1003.08
2019-01-09T00:05:57.038Z,1003.08
2019-01-09T00:06:56.993Z,1003.11
2019-01-09T00:07:56.975Z,1003.09
2019-01-09T00:08:56.967Z,1003.17
2019-01-09T00:09:56.960Z,1003.04
2019-01-09T00:10:56.959Z,1003.14
2019-01-09T00:11:56.970Z,1003.22
2019-01-09T00:12:56.940Z,1003.23
2019-01-09T00:13:56.922Z,1003.17
2019-01-09T00:14:56.905Z,1003.31
2019-01-09T00:15:56.892Z,1003.06
2019-01-09T00:16:56.877Z,1003.13
2019-01-09T00:17:56.924Z,1003.16
2019-01-09T00:18:56.857Z,1003.37
2019-01-09T00:19:56.859Z,1003.28
2019-01-09T00:20:56.849Z,1003.30
2019-01-09T00:21:56.833Z,1003.32
2019-01-09T00:22:56.832Z,1003.35
2019-01-09T00:23:56.834Z,1003.30
2019-01-09T00:24:56.794Z,1003.32
2019-01-09T00:25:56.803Z,1003.36
2019-01-09T00:26:56.777Z,1003.36
2019-01-09T00:27:56.790Z,1003.43
2019-01-09T00:28:56.816Z,1003.46
2019-01-09T00:29:56.745Z,1003.46
2019-01-09T00:30:56.738Z,1003.58
2019-01-09T00:31:56.730Z,1003.51
2019-01-09T00:32:56.707Z,1003.45
2019-01-09T00:33:56.701Z,1003.42
2019-01-09T00:34:56.730Z,1003.60
2019-01-09T00:35:56.685Z,1003.40
2019-01-09T00:36:56.665Z,1003.44
2019-01-09T00:37:56.687Z,1003.48
2019-01-09T00:38:56.658Z,1003.48
2019-01-09T00:39:56.641Z,1003.30
2019-01-09T00:40:56.662Z,1003.59
2019-01-09T00:41:56.617Z,1003.56
2019-01-09T00:42:56.624Z,1003.62
2019-01-09T00:43:56.615Z,1003.55
2019-01-09T00:44:56.579Z,1003.52
2019-01-09T00:45:56.608Z,1003.64
2019-01-09T00:46:56.576Z,1003.59
2019-01-09T00:47:56.565Z,1003.61
2019-01-09T00:48:56.559Z,1003.60
2019-01-09T00:49:56.539Z,1003.54
2019-01-09T00:50:56.520Z,1003.63
2019-01-09T00:51:56.535Z,1003.58
2019-01-09T00:52:56.491Z,1003.78
2019-01-09T00:53:56.495Z,1003.70
2019-01-09T00:54:56.495Z,1003.71
2019-01-09T00:55:56.471Z,1003.75
2019-01-09T00:56:56.455Z,1003.74
2019-01-09T00:57:56.462Z,1003.92
2019-01-09T00:58:56.428Z,1003.70
2019-01-09T00:59:56.423Z,1003.96
2019-01-09T01:00:56.414Z,1003.83
2019-01-09T01:01:56.404Z,1003.76
2019-01-09T01:02:56.428Z,1003.81
2019-01-09T01:03:56.388Z,1003.78
2019-01-09T01:04:56.375Z,1003.84
2019-01-09T01:05:56.352Z,1003.96
2019-01-09T01:06:56.367Z,1003.98
2019-01-09T01:07:56.342Z,1003.90
2019-01-09T01:08:56.348Z,1003.97
2019-01-09T01:09:56.327Z,1003.95
2019-01-09T01:10:56.325Z,1004.07
2019-01-09T01:11:56.297Z,1004.14
2019-01-09T01:12:56.295Z,1004.12
2019-01-09T01:13:56.267Z,1004.09
2019-01-09T01:14:56.282Z,1004.17
2019-01-09T01:15:56.249Z,1004.22
2019-01-09T01:16:56.241Z,1004.14
2019-01-09T01:17:56.226Z,1003.95
2019-01-09T01:18:56.230Z,1004.32
2019-01-09T01:19:56.214Z,1004.36
2019-01-09T01:20:56.249Z,1004.16
2019-01-09T01:21:56.194Z,1004.27
2019-01-09T01:22:56.179Z,1004.31
2019-01-09T01:23:56.245Z,1004.37
2019-01-09T01:24:56.157Z,1004.37
2019-01-09T01:25:56.141Z,1004.37
2019-01-09T01:26:56.155Z,1004.43
2019-01-09T01:27:56.129Z,1004.29
2019-01-09T01:28:56.112Z,1004.40
2019-01-09T01:29:56.099Z,1004.42
2019-01-09T01:30:56.109Z,1004.43
2019-01-09T01:31:56.075Z,1004.48
2019-01-09T01:32:56.093Z,1004.44
2019-01-09T01:33:56.060Z,1004.38
2019-01-09T01:34:56.051Z,1004.43
2019-01-09T01:35:56.045Z,1004.49
2019-01-09T01:36:56.049Z,1004.54
2019-01-09T01:37:56.020Z,1004.62
2019-01-09T01:38:56.024Z,1004.52
2019-01-09T01:39:55.998Z,1004.53
2019-01-09T01:40:55.976Z,1004.50
2019-01-09T01:41:55.980Z,1004.70
2019-01-09T01:42:55.958Z,1004.64
2019-01-09T01:43:55.978Z,1004.68
2019-01-09T01:44:55.938Z,1004.61
2019-01-09T01:45:55.931Z,1004.62
2019-01-09T01:46:55.914Z,1004.64
2019-01-09T01:47:55.915Z,1004.71
2019-01-09T01:48:55.891Z,1004.88
2019-01-09T01:49:55.924Z,1004.67
2019-01-09T01:50:55.877Z,1004.88
2019-01-09T01:51:55.864Z,1004.67
2019-01-09T01:52:55.872Z,1004.76
2019-01-09T01:53:55.853Z,1004.80
2019-01-09T01:54:55.830Z,1004.73
2019-01-09T01:55:55.874Z,1004.81
2019-01-09T01:56:55.816Z,1004.86
2019-01-09T01:57:55.797Z,1004.59
2019-01-09T01:58:55.792Z,1004.80
2019-01-09T01:59:55.790Z,1004.91
2019-01-09T02:00:55.779Z,1004.96
2019-01-09T02:01:55.795Z,1004.83
2019-01-09T02:02:55.743Z,1004.86
2019-01-09T02:03:55.746Z,1004.94
2019-01-09T02:04:55.721Z,1004.76
2019-01-09T02:06:03.453Z,1004.92
2019-01-09T02:06:56.726Z,1004.89
2019-01-09T02:07:55.700Z,1004.89
2019-01-09T02:08:55.728Z,1005.00
2019-01-09T02:09:55.692Z,1005.07
2019-01-09T02:10:55.661Z,1005.02
2019-01-09T02:11:55.650Z,1005.06
2019-01-09T02:12:55.651Z,1004.94
2019-01-09T02:13:55.627Z,1005.08
2019-01-09T02:14:55.612Z,1005.09
2019-01-09T02:15:55.601Z,1005.02
2019-01-09T02:16:55.617Z,1005.06
2019-01-09T02:17:55.586Z,1005.05
2019-01-09T02:18:55.572Z,1005.02
2019-01-09T02:19:55.564Z,1005.06
2019-01-09T02:20:55.575Z,1005.09
2019-01-09T02:21:55.545Z,1005.14
2019-01-09T02:22:55.569Z,1005.19
2019-01-09T02:23:55.521Z,1004.85
2019-01-09T02:24:55.504Z,1005.23
2019-01-09T02:25:55.497Z,1005.17
2019-01-09T02:26:55.497Z,1005.12
2019-01-09T02:27:55.481Z,1005.20
2019-01-09T02:28:55.504Z,1005.26
2019-01-09T02:29:55.462Z,1005.35
2019-01-09T02:30:55.439Z,1005.40
2019-01-09T02:31:55.431Z,1005.24
2019-01-09T02:32:55.420Z,1005.34
2019-01-09T02:33:55.423Z,1005.41
2019-01-09T02:34:55.468Z,1005.27
2019-01-09T02:35:55.388Z,1005.37
2019-01-09T02:36:55.370Z,1005.35
2019-01-09T02:37:55.370Z,1005.34
2019-01-09T02:38:55.351Z,1005.41
2019-01-09T02:39:55.382Z,1005.41
2019-01-09T02:40:55.350Z,1005.47
2019-01-09T02:41:55.323Z,1005.39
2019-01-09T02:42:55.315Z,1005.40
2019-01-09T02:43:55.307Z,1005.40
2019-01-09T02:44:55.295Z,1005.54
2019-01-09T02:45:55.329Z,1005.59
2019-01-09T02:46:55.276Z,1005.42
2019-01-09T02:47:55.256Z,1005.40
2019-01-09T02:48:55.255Z,1005.46
2019-01-09T02:49:55.249Z,1005.45
2019-01-09T02:50:55.243Z,1005.48
2019-01-09T02:51:55.248Z,1005.63
2019-01-09T02:52:55.198Z,1005.51
2019-01-09T02:53:55.330Z,1005.46
2019-01-09T02:54:55.178Z,1005.51
2019-01-09T02:55:55.173Z,1005.57
2019-01-09T02:56:55.175Z,1005.39
2019-01-09T02:57:56.953Z,1005.49
2019-01-09T02:58:55.143Z,1005.64
2019-01-09T02:59:55.135Z,1005.51
2019-01-09T03:00:55.112Z,1005.48
2019-01-09T03:01:55.112Z,1005.41
2019-01-09T03:02:55.091Z,1005.46
2019-01-09T03:03:55.117Z,1005.53
2019-01-09T03:04:55.076Z,1005.49
2019-01-09T03:05:55.071Z,1005.54
2019-01-09T03:06:55.055Z,1005.50
2019-01-09T03:07:55.040Z,1005.65
2019-01-09T03:08:55.074Z,1005.54
2019-01-09T03:09:55.026Z,1005.51
2019-01-09T03:10:55.018Z,1005.54
2019-01-09T03:11:55.014Z,1005.51
2019-01-09T03:12:54.988Z,1005.50
2019-01-09T03:13:54.981Z,1005.47
2019-01-09T03:14:54.986Z,1005.58
2019-01-09T03:15:54.955Z,1005.57
2019-01-09T03:16:54.945Z,1005.51
2019-01-09T03:17:54.942Z,1005.60
2019-01-09T03:18:54.933Z,1005.53
2019-01-09T03:19:54.926Z,1005.61
2019-01-09T03:20:54.919Z,1005.58
2019-01-09T03:21:54.895Z,1005.51
2019-01-09T03:22:54.878Z,1005.72
2019-01-09T03:23:54.875Z,1005.62
2019-01-09T03:24:54.888Z,1005.62
2019-01-09T03:25:54.859Z,1005.64
2019-01-09T03:26:54.838Z,1005.51
2019-01-09T03:27:54.825Z,1005.53
2019-01-09T03:28:54.816Z,1005.57
2019-01-09T03:29:54.812Z,1005.64
2019-01-09T03:30:54.826Z,1005.57
2019-01-09T03:31:54.806Z,1005.60
2019-01-09T03:32:54.779Z,1005.70
2019-01-09T03:33:54.768Z,1005.66
2019-01-09T03:34:54.766Z,1005.56
2019-01-09T03:35:54.745Z,1005.66
2019-01-09T03:36:54.779Z,1005.50
2019-01-09T03:37:54.722Z,1005.55
2019-01-09T03:38:54.712Z,1005.66
2019-01-09T03:39:54.696Z,1005.70
2019-01-09T03:40:54.688Z,1005.64
2019-01-09T03:41:54.682Z,1005.69
2019-01-09T03:42:54.697Z,1005.60
2019-01-09T03:43:54.672Z,1005.62
2019-01-09T03:44:54.643Z,1005.64
2019-01-09T03:45:54.644Z,1005.64
2019-01-09T03:46:54.624Z,1005.66
2019-01-09T03:47:54.615Z,1005.62
2019-01-09T03:48:54.636Z,1005.64
2019-01-09T03:49:54.596Z,1005.76
2019-01-09T03:50:54.582Z,1005.68
2019-01-09T03:51:54.582Z,1005.77
2019-01-09T03:52:54.559Z,1005.77
2019-01-09T03:53:54.567Z,1005.67
2019-01-09T03:54:54.566Z,1005.72
2019-01-09T03:55:54.556Z,1005.78
2019-01-09T03:56:54.531Z,1005.72
2019-01-09T03:57:54.510Z,1005.73
2019-01-09T03:58:54.489Z,1005.85
2019-01-09T03:59:54.484Z,1005.85
2019-01-09T04:00:54.505Z,1005.84
2019-01-09T04:01:54.467Z,1005.81
2019-01-09T04:02:54.454Z,1005.80
2019-01-09T04:03:54.454Z,1005.79
2019-01-09T04:04:54.439Z,1005.88
2019-01-09T04:05:54.449Z,1005.87
2019-01-09T04:06:54.409Z,1005.90
2019-01-09T04:07:54.412Z,1005.80
2019-01-09T04:08:54.399Z,1005.88
2019-01-09T04:09:54.374Z,1005.86
2019-01-09T04:10:54.395Z,1005.94
2019-01-09T04:11:54.363Z,1005.88
2019-01-09T04:12:54.347Z,1005.95
2019-01-09T04:13:54.335Z,1006.08
2019-01-09T04:14:54.333Z,1005.97
2019-01-09T04:15:54.315Z,1005.93
2019-01-09T04:16:54.342Z,1005.92
2019-01-09T04:17:54.302Z,1005.79
2019-01-09T04:18:54.284Z,1005.95
2019-01-09T04:19:54.275Z,1006.00
2019-01-09T04:20:54.257Z,1005.99
2019-01-09T04:21:54.249Z,1006.03
2019-01-09T04:22:54.263Z,1006.08
2019-01-09T04:23:54.244Z,1006.01
2019-01-09T04:24:54.223Z,1006.04
2019-01-09T04:25:54.204Z,1006.03
2019-01-09T04:26:54.198Z,1006.18
2019-01-09T04:27:54.173Z,1006.05
2019-01-09T04:28:54.189Z,1006.09
2019-01-09T04:29:54.158Z,1006.07
2019-01-09T04:30:54.150Z,1005.98
2019-01-09T04:31:54.147Z,1006.14
2019-01-09T04:32:54.134Z,1006.13
2019-01-09T04:33:54.113Z,1006.12
2019-01-09T04:34:54.157Z,1006.13
2019-01-09T04:35:54.095Z,1006.05
2019-01-09T04:36:54.094Z,1006.14
2019-01-09T04:37:54.069Z,1006.08
2019-01-09T04:38:54.071Z,1006.16
2019-01-09T04:39:54.070Z,1006.14
2019-01-09T04:40:54.066Z,1006.17
2019-01-09T04:41:54.033Z,1006.20
2019-01-09T04:42:54.014Z,1006.21
2019-01-09T04:43:54.100Z,1006.27
2019-01-09T04:44:53.995Z,1006.33
2019-01-09T04:45:53.988Z,1006.22
2019-01-09T04:46:54.006Z,1006.22
2019-01-09T04:47:53.964Z,1006.20
2019-01-09T04:48:53.955Z,1006.39
2019-01-09T04:49:53.940Z,1006.21
2019-01-09T04:50:53.937Z,1006.32
2019-01-09T04:51:53.946Z,1006.40
2019-01-09T04:52:53.952Z,1006.36
2019-01-09T04:53:53.902Z,1006.37
2019-01-09T04:54:53.911Z,1006.33
2019-01-09T04:55:53.900Z,1006.30
2019-01-09T04:56:53.871Z,1006.18
2019-01-09T04:57:53.880Z,1006.39
2019-01-09T04:58:53.877Z,1006.26
2019-01-09T04:59:53.831Z,1006.42
2019-01-09T05:00:53.845Z,1006.26
2019-01-09T05:01:53.808Z,1006.29
2019-01-09T05:02:53.808Z,1006.41
2019-01-09T05:03:53.808Z,1006.32
2019-01-09T05:04:53.819Z,1006.31
2019-01-09T05:05:53.770Z,1006.24
2019-01-09T05:07:00.515Z,1006.30
2019-01-09T05:07:54.754Z,1006.33
2019-01-09T05:08:53.750Z,1006.42
2019-01-09T05:09:53.915Z,1006.43
2019-01-09T05:10:53.717Z,1006.32
2019-01-09T05:11:53.711Z,1006.32
2019-01-09T05:12:53.711Z,1006.39
2019-01-09T05:13:53.680Z,1006.41
2019-01-09T05:14:53.680Z,1006.30
2019-01-09T05:15:53.692Z,1006.37
2019-01-09T05:16:53.654Z,1006.37
2019-01-09T05:17:53.650Z,1006.34
2019-01-09T05:18:53.630Z,1006.40
2019-01-09T05:19:53.648Z,1006.37
2019-01-09T05:20:53.638Z,1006.44
2019-01-09T05:21:53.616Z,1006.38
2019-01-09T05:22:53.581Z,1006.37
2019-01-09T05:23:53.579Z,1006.36
2019-01-09T05:24:53.589Z,1006.29
2019-01-09T05:25:53.556Z,1006.32
2019-01-09T05:26:53.575Z,1006.46
2019-01-09T05:27:53.529Z,1006.47
2019-01-09T05:28:53.525Z,1006.45
2019-01-09T05:29:53.530Z,1006.40
2019-01-09T05:30:53.503Z,1006.37
2019-01-09T05:31:53.494Z,1006.45
2019-01-09T05:32:53.501Z,1006.51
2019-01-09T05:33:53.464Z,1006.47
2019-01-09T05:34:53.456Z,1006.48
2019-01-09T05:35:53.461Z,1006.52
2019-01-09T05:36:53.436Z,1006.62
2019-01-09T05:37:53.474Z,1006.75
2019-01-09T05:38:53.417Z,1006.48
2019-01-09T05:39:53.415Z,1006.62
2019-01-09T05:40:53.398Z,1006.65
2019-01-09T05:41:53.387Z,1006.71
2019-01-09T05:42:53.371Z,1006.74
2019-01-09T05:43:53.397Z,1006.78
2019-01-09T05:44:53.354Z,1006.72
2019-01-09T05:45:53.352Z,1006.85
2019-01-09T05:46:53.337Z,1006.81
2019-01-09T05:47:53.326Z,1006.73
2019-01-09T05:48:53.301Z,1006.79
2019-01-09T05:49:53.312Z,1006.75
2019-01-09T05:50:53.293Z,1006.76
2019-01-09T05:51:53.268Z,1006.82
2019-01-09T05:52:53.266Z,1006.86
2019-01-09T05:53:53.251Z,1006.84
2019-01-09T05:54:53.275Z,1006.87
2019-01-09T05:55:53.226Z,1006.81
2019-01-09T05:56:53.220Z,1006.96
2019-01-09T05:57:53.204Z,1006.99
2019-01-09T05:58:53.211Z,1006.93
2019-01-09T05:59:53.188Z,1006.97
2019-01-09T06:00:53.215Z,1006.95
2019-01-09T06:01:53.167Z,1006.91
2019-01-09T06:02:53.150Z,1006.96
2019-01-09T06:03:53.147Z,1007.01
2019-01-09T06:04:53.137Z,1007.05
2019-01-09T06:05:53.170Z,1006.81
2019-01-09T06:06:53.129Z,1006.93
2019-01-09T06:07:53.116Z,1006.98
2019-01-09T06:08:53.091Z,1007.03
2019-01-09T06:09:53.080Z,1007.04
2019-01-09T06:10:53.071Z,1007.00
2019-01-09T06:11:53.085Z,1007.10
2019-01-09T06:12:53.050Z,1007.09
2019-01-09T06:13:53.061Z,1007.06
2019-01-09T06:14:53.030Z,1007.12
2019-01-09T06:15:53.009Z,1007.18
2019-01-09T06:16:53.013Z,1006.97
2019-01-09T06:17:53.041Z,1007.06
2019-01-09T06:18:52.994Z,1007.12
2019-01-09T06:19:52.976Z,1007.08
2019-01-09T06:20:52.979Z,1007.13
2019-01-09T06:21:52.950Z,1007.15
2019-01-09T06:22:52.947Z,1007.15
2019-01-09T06:23:52.945Z,1007.12
2019-01-09T06:24:52.918Z,1007.24
2019-01-09T06:25:52.906Z,1007.19
2019-01-09T06:26:52.920Z,1007.16
2019-01-09T06:27:52.891Z,1007.12
2019-01-09T06:28:52.926Z,1007.20
2019-01-09T06:29:52.875Z,1007.13
2019-01-09T06:30:52.855Z,1007.23
2019-01-09T06:31:52.841Z,1007.24
2019-01-09T06:32:52.883Z,1007.25
2019-01-09T06:33:52.823Z,1007.24
2019-01-09T06:34:52.844Z,1007.28
2019-01-09T06:35:52.816Z,1007.29
2019-01-09T06:36:52.810Z,1007.34
2019-01-09T06:37:52.785Z,1007.38
2019-01-09T06:38:52.769Z,1007.31
2019-01-09T06:39:52.757Z,1007.43
2019-01-09T06:40:52.762Z,1007.46
2019-01-09T06:41:52.729Z,1007.57
2019-01-09T06:42:52.751Z,1007.54
2019-01-09T06:43:52.734Z,1007.60
2019-01-09T06:44:52.700Z,1007.53
2019-01-09T06:45:52.727Z,1007.67
2019-01-09T06:46:52.718Z,1007.58
2019-01-09T06:47:52.680Z,1007.63
2019-01-09T06:48:52.681Z,1007.63
2019-01-09T06:49:52.667Z,1007.68
2019-01-09T06:50:52.639Z,1007.65
2019-01-09T06:51:52.620Z,1007.70
2019-01-09T06:52:52.629Z,1007.72
2019-01-09T06:53:52.630Z,1007.69
2019-01-09T06:54:52.670Z,1007.71
2019-01-09T06:55:52.588Z,1007.67
2019-01-09T06:56:52.581Z,1007.70
2019-01-09T06:57:52.586Z,1007.65
2019-01-09T06:58:52.557Z,1007.68
2019-01-09T06:59:52.581Z,1007.75
2019-01-09T07:00:52.560Z,1007.81
2019-01-09T07:01:52.536Z,1007.76
2019-01-09T07:02:52.501Z,1007.87
2019-01-09T07:03:52.600Z,1007.79
2019-01-09T07:04:52.493Z,1007.85
2019-01-09T07:05:52.469Z,1007.79
2019-01-09T07:06:52.482Z,1007.80
2019-01-09T07:07:52.462Z,1007.81
2019-01-09T07:08:52.469Z,1007.80
2019-01-09T07:09:52.432Z,1007.78
2019-01-09T07:10:52.460Z,1007.76
2019-01-09T07:11:52.410Z,1007.83
2019-01-09T07:12:52.406Z,1007.89
2019-01-09T07:13:52.399Z,1007.93
2019-01-09T07:14:52.422Z,1007.87
2019-01-09T07:15:52.365Z,1007.92
2019-01-09T07:16:52.490Z,1007.98
2019-01-09T07:17:52.389Z,1007.98
2019-01-09T07:18:52.336Z,1007.97
2019-01-09T07:19:52.319Z,1008.00
2019-01-09T07:20:52.354Z,1008.01
2019-01-09T07:21:52.298Z,1008.08
2019-01-09T07:22:52.287Z,1007.98
2019-01-09T07:23:52.283Z,1008.04
2019-01-09T07:24:52.285Z,1007.98
2019-01-09T07:25:52.269Z,1007.97
2019-01-09T07:26:52.269Z,1008.03
2019-01-09T07:27:52.240Z,1008.11
2019-01-09T07:28:52.228Z,1008.10
2019-01-09T07:29:52.222Z,1008.10
2019-01-09T07:30:52.216Z,1008.10
2019-01-09T07:31:52.189Z,1008.03
2019-01-09T07:32:52.206Z,1008.03
2019-01-09T07:33:52.165Z,1008.05
2019-01-09T07:34:52.167Z,1008.03
2019-01-09T07:35:52.151Z,1008.16
2019-01-09T07:36:52.149Z,1008.14
2019-01-09T07:37:52.164Z,1008.26
2019-01-09T07:38:52.127Z,1008.23
2019-01-09T07:39:52.110Z,1008.20
2019-01-09T07:40:52.096Z,1008.23
2019-01-09T07:41:52.096Z,1008.27
2019-01-09T07:42:52.089Z,1008.36
2019-01-09T07:43:52.090Z,1008.19
2019-01-09T07:44:52.060Z,1008.27
2019-01-09T07:45:52.037Z,1008.22
2019-01-09T07:46:52.027Z,1008.35
2019-01-09T07:47:52.052Z,1008.40
2019-01-09T07:48:52.009Z,1008.42
2019-01-09T07:49:52.009Z,1008.39
2019-01-09T07:50:52.002Z,1008.42
2019-01-09T07:51:51.979Z,1008.38
2019-01-09T07:52:51.961Z,1008.36
2019-01-09T07:53:51.995Z,1008.42
2019-01-09T07:54:51.940Z,1008.45
2019-01-09T07:55:51.939Z,1008.44
2019-01-09T07:56:51.937Z,1008.48
2019-01-09T07:57:51.920Z,1008.45
2019-01-09T07:58:51.903Z,1008.47
2019-01-09T07:59:51.926Z,1008.53
2019-01-09T08:00:51.881Z,1008.53
2019-01-09T08:01:51.876Z,1008.54
2019-01-09T08:02:51.858Z,1008.57
2019-01-09T08:03:51.853Z,1008.57
2019-01-09T08:04:51.861Z,1008.68
2019-01-09T08:05:51.839Z,1008.69
2019-01-09T08:06:51.810Z,1008.67
2019-01-09T08:07:54.154Z,1008.65
2019-01-09T08:08:51.797Z,1008.73
2019-01-09T08:09:51.787Z,1008.76
2019-01-09T08:10:51.802Z,1008.79
2019-01-09T08:11:51.766Z,1008.76
2019-01-09T08:12:51.752Z,1008.71
2019-01-09T08:13:51.756Z,1008.81
2019-01-09T08:14:51.738Z,1008.77
2019-01-09T08:15:51.722Z,1008.74
2019-01-09T08:16:51.740Z,1008.78
2019-01-09T08:17:51.702Z,1008.82
2019-01-09T08:18:51.682Z,1008.79
2019-01-09T08:19:51.763Z,1008.85
2019-01-09T08:20:51.663Z,1008.81
2019-01-09T08:21:51.704Z,1008.88
2019-01-09T08:22:51.642Z,1008.91
2019-01-09T08:23:51.634Z,1008.98
2019-01-09T08:24:51.634Z,1008.95
2019-01-09T08:25:51.611Z,1008.98
2019-01-09T08:26:51.609Z,1008.94
2019-01-09T08:27:51.613Z,1008.99
2019-01-09T08:28:51.585Z,1009.01
2019-01-09T08:29:51.585Z,1009.11
2019-01-09T08:30:51.564Z,1009.12
2019-01-09T08:31:51.566Z,1009.16
2019-01-09T08:32:51.536Z,1009.08
2019-01-09T08:33:51.611Z,1009.12
2019-01-09T08:34:51.521Z,1009.06
2019-01-09T08:35:51.511Z,1009.15
2019-01-09T08:36:51.522Z,1009.16
2019-01-09T08:37:51.485Z,1009.13
2019-01-09T08:38:51.508Z,1008.96
2019-01-09T08:39:51.463Z,1009.16
2019-01-09T08:40:51.456Z,1009.16
2019-01-09T08:41:51.508Z,1009.11
2019-01-09T08:42:51.437Z,1009.16
2019-01-09T08:43:51.455Z,1009.18
2019-01-09T08:44:51.407Z,1009.22
2019-01-09T08:45:51.400Z,1009.23
2019-01-09T08:46:51.395Z,1009.21
2019-01-09T08:47:51.376Z,1009.27
2019-01-09T08:48:51.400Z,1009.25
2019-01-09T08:49:51.386Z,1009.32
2019-01-09T08:50:51.343Z,1009.31
2019-01-09T08:51:51.371Z,1009.33
2019-01-09T08:52:51.344Z,1009.36
2019-01-09T08:53:51.319Z,1009.33
2019-01-09T08:54:51.331Z,1009.35
2019-01-09T08:55:51.327Z,1009.41
2019-01-09T08:56:51.284Z,1009.41
2019-01-09T08:57:51.273Z,1009.42
2019-01-09T08:58:51.268Z,1009.40
2019-01-09T08:59:51.254Z,1009.40
2019-01-09T09:00:51.279Z,1009.45
2019-01-09T09:01:51.247Z,1009.45
2019-01-09T09:02:51.236Z,1009.43
2019-01-09T09:03:51.219Z,1009.44
2019-01-09T09:04:51.204Z,1009.49
2019-01-09T09:05:51.189Z,1009.53
2019-01-09T09:06:51.203Z,1009.49
2019-01-09T09:07:51.163Z,1009.53
2019-01-09T09:08:51.159Z,1009.59
2019-01-09T09:09:51.152Z,1009.58
2019-01-09T09:10:51.132Z,1009.58
2019-01-09T09:11:51.167Z,1009.62
2019-01-09T09:12:51.139Z,1009.65
2019-01-09T09:13:51.112Z,1009.75
2019-01-09T09:14:51.087Z,1009.76
2019-01-09T09:15:51.090Z,1009.66
2019-01-09T09:16:51.211Z,1009.74
2019-01-09T09:17:51.098Z,1009.78
2019-01-09T09:18:51.043Z,1009.81
2019-01-09T09:19:51.052Z,1009.74
2019-01-09T09:20:51.022Z,1009.75
2019-01-09T09:21:51.027Z,1009.80
2019-01-09T09:22:51.037Z,1009.73
2019-01-09T09:23:51.022Z,1009.78
2019-01-09T09:24:50.983Z,1009.80
2019-01-09T09:25:50.973Z,1009.84
2019-01-09T09:26:50.961Z,1009.94
2019-01-09T09:27:50.965Z,1009.94
2019-01-09T09:28:50.943Z,1009.91
2019-01-09T09:29:50.951Z,1009.93
2019-01-09T09:30:50.939Z,1009.99
2019-01-09T09:31:50.913Z,1009.93
2019-01-09T09:32:50.906Z,1010.00
2019-01-09T09:33:50.886Z,1009.86
2019-01-09T09:34:50.911Z,1009.97
2019-01-09T09:35:50.870Z,1009.97
2019-01-09T09:36:50.885Z,1009.98
2019-01-09T09:37:51.123Z,1010.02
2019-01-09T09:38:51.339Z,1010.07
2019-01-09T09:39:50.958Z,1010.09
2019-01-09T09:40:51.429Z,1010.06
2019-01-09T09:41:50.800Z,1010.13
2019-01-09T09:42:50.800Z,1010.14
2019-01-09T09:43:50.801Z,1010.09
2019-01-09T09:44:50.776Z,1010.16
2019-01-09T09:45:50.765Z,1010.20
2019-01-09T09:46:50.789Z,1010.09
2019-01-09T09:47:51.029Z,1010.13
2019-01-09T09:48:50.725Z,1010.24
2019-01-09T09:49:50.730Z,1010.23
2019-01-09T09:50:50.838Z,1010.25
2019-01-09T09:51:50.719Z,1010.26
2019-01-09T09:52:50.826Z,1010.28
2019-01-09T09:53:50.685Z,1010.25
2019-01-09T09:54:50.661Z,1010.26
2019-01-09T09:55:50.681Z,1010.30
2019-01-09T09:56:50.663Z,1010.25
2019-01-09T09:57:50.668Z,1010.25
2019-01-09T09:58:50.629Z,1010.32
2019-01-09T09:59:50.625Z,1010.30
2019-01-09T10:00:50.596Z,1010.26
2019-01-09T10:01:50.591Z,1010.26
2019-01-09T10:02:50.598Z,1010.26
2019-01-09T10:03:50.607Z,1010.24
2019-01-09T10:04:50.560Z,1010.26
2019-01-09T10:05:50.546Z,1010.30
2019-01-09T10:06:50.545Z,1010.34
2019-01-09T10:07:50.524Z,1010.30
2019-01-09T10:08:50.547Z,1010.26
2019-01-09T10:09:50.508Z,1010.30
2019-01-09T10:10:50.506Z,1010.33
2019-01-09T10:11:50.487Z,1010.27
2019-01-09T10:12:50.499Z,1010.36
2019-01-09T10:13:50.467Z,1010.32
2019-01-09T10:14:50.529Z,1010.29
2019-01-09T10:15:50.482Z,1010.33
2019-01-09T10:16:50.560Z,1010.32
2019-01-09T10:17:50.465Z,1010.39
2019-01-09T10:18:50.451Z,1010.44
2019-01-09T10:19:50.446Z,1010.44
2019-01-09T10:20:50.531Z,1010.36
2019-01-09T10:21:50.412Z,1010.45
2019-01-09T10:22:50.370Z,1010.43
2019-01-09T10:23:50.364Z,1010.42
2019-01-09T10:24:50.347Z,1010.51
2019-01-09T10:25:50.363Z,1010.60
2019-01-09T10:26:50.323Z,1010.56
2019-01-09T10:27:50.337Z,1010.49
2019-01-09T10:28:50.308Z,1010.44
2019-01-09T10:29:50.304Z,1010.45
2019-01-09T10:30:50.280Z,1010.46
2019-01-09T10:31:50.300Z,1010.52
2019-01-09T10:32:50.268Z,1010.58
2019-01-09T10:33:50.272Z,1010.51
2019-01-09T10:34:50.247Z,1010.54
2019-01-09T10:35:50.223Z,1010.59
2019-01-09T10:36:50.224Z,1010.41
2019-01-09T10:37:50.233Z,1010.47
2019-01-09T10:38:50.198Z,1010.50
2019-01-09T10:39:50.184Z,1010.51
2019-01-09T10:40:50.183Z,1010.47
2019-01-09T10:41:50.170Z,1010.50
2019-01-09T10:42:50.177Z,1010.57
2019-01-09T10:43:50.139Z,1010.58
2019-01-09T10:44:50.135Z,1010.57
2019-01-09T10:45:50.133Z,1010.46
2019-01-09T10:46:50.116Z,1010.53
2019-01-09T10:47:50.101Z,1010.61
2019-01-09T10:48:50.123Z,1010.58
2019-01-09T10:49:50.080Z,1010.67
2019-01-09T10:50:50.078Z,1010.58
2019-01-09T10:51:50.062Z,1010.59
2019-01-09T10:52:50.062Z,1010.59
2019-01-09T10:53:50.595Z,1010.64
2019-01-09T10:54:50.102Z,1010.59
2019-01-09T10:55:50.021Z,1010.60
2019-01-09T10:56:50.008Z,1010.61
2019-01-09T10:57:49.996Z,1010.62
2019-01-09T10:58:50.003Z,1010.60
2019-01-09T10:59:50.003Z,1010.55
2019-01-09T11:00:49.964Z,1010.53
2019-01-09T11:01:49.966Z,1010.69
2019-01-09T11:02:49.944Z,1010.62
2019-01-09T11:03:49.930Z,1010.68
2019-01-09T11:04:49.926Z,1010.62
2019-01-09T11:05:49.979Z,1010.71
2019-01-09T11:06:49.913Z,1010.63
2019-01-09T11:07:49.947Z,1010.64
2019-01-09T11:08:49.879Z,1010.71
2019-01-09T11:09:49.886Z,1010.75
2019-01-09T11:10:49.885Z,1010.68
2019-01-09T11:11:49.898Z,1010.75
2019-01-09T11:12:49.837Z,1010.80
2019-01-09T11:13:49.828Z,1010.69
2019-01-09T11:14:49.814Z,1010.69
2019-01-09T11:15:49.825Z,1010.70
2019-01-09T11:16:49.824Z,1010.73
2019-01-09T11:17:49.780Z,1010.74
2019-01-09T11:18:49.772Z,1010.78
2019-01-09T11:19:49.762Z,1010.66
2019-01-09T11:20:49.754Z,1010.83
2019-01-09T11:21:49.742Z,1010.81
2019-01-09T11:22:49.772Z,1010.88
2019-01-09T11:23:49.722Z,1010.89
2019-01-09T11:24:49.731Z,1010.83
2019-01-09T11:25:49.739Z,1010.84
2019-01-09T11:26:49.689Z,1010.89
2019-01-09T11:27:49.703Z,1010.81
2019-01-09T11:28:49.695Z,1010.87
2019-01-09T11:29:49.701Z,1010.79
2019-01-09T11:30:49.649Z,1010.88
2019-01-09T11:31:49.637Z,1010.87
2019-01-09T11:32:49.637Z,1010.82
2019-01-09T11:33:49.653Z,1010.91
2019-01-09T11:34:49.618Z,1010.89
2019-01-09T11:35:49.611Z,1010.91
2019-01-09T11:36:49.584Z,1010.93
2019-01-09T11:37:49.592Z,1010.96
2019-01-09T11:38:55.611Z,1010.99
2019-01-09T11:39:50.610Z,1010.97
2019-01-09T11:40:49.545Z,1010.98
2019-01-09T11:41:49.529Z,1011.03
2019-01-09T11:42:49.545Z,1010.97
2019-01-09T11:43:49.509Z,1010.93
2019-01-09T11:44:49.507Z,1010.93
2019-01-09T11:45:49.524Z,1010.98
2019-01-09T11:46:49.490Z,1010.99
2019-01-09T11:47:49.479Z,1010.97
2019-01-09T11:48:49.456Z,1010.88
2019-01-09T11:49:49.478Z,1010.97
2019-01-09T11:50:49.440Z,1010.97
2019-01-09T11:51:49.446Z,1011.05
2019-01-09T11:52:49.420Z,1010.92
2019-01-09T11:53:49.405Z,1011.13
2019-01-09T11:54:49.400Z,1011.01
2019-01-09T11:55:49.387Z,1011.08
2019-01-09T11:56:49.410Z,1011.04
2019-01-09T11:57:49.443Z,1011.12
2019-01-09T11:58:49.354Z,1011.02
2019-01-09T11:59:49.350Z,1011.08
2019-01-09T12:00:49.332Z,1011.18
2019-01-09T12:01:49.338Z,1011.08
2019-01-09T12:02:49.341Z,1011.03
2019-01-09T12:03:49.314Z,1011.09
2019-01-09T12:04:49.289Z,1011.13
2019-01-09T12:05:49.282Z,1011.08